Gilson, Illinois
Current Conditions -  °F | °C
As of 10:15 PM on Tuesday 27 Jan 2015 (Local Time) from KGBG Reporting Station
Overcast Overcast  
Wind Chill: 28°   Ceiling: 1000
Heat Index: 28°   Visibility: 10mi
Dew Point: 25°   Wind: 0mph
Humidity: 90%   Direction: NA
Pressure: 30.23"   Gusts: NA
Location:  40.86°N, 90.2°W
Report Text: KGBG 280415Z AUTO 00000KT 10SM OVC010 M02/M04 A3023 RMK AO2 T10251040
Loading
Personal Weather Stations






























Interactive Weather Map New forecast layout! Learn more

10-Day Weather Forecast

Advertisements
Track Severe Weather on mobile